createdAt,value
2019-03-13T00:00:45.453Z,1.45
2019-03-13T00:03:17.975Z,1.52
2019-03-13T00:05:48.014Z,1.37
2019-03-13T00:08:17.905Z,1.70
2019-03-13T00:10:47.917Z,1.52
2019-03-13T00:13:17.777Z,1.05
2019-03-13T00:15:49.687Z,1.50
2019-03-13T00:18:19.381Z,1.27
2019-03-13T00:20:49.171Z,1.35
2019-03-13T00:23:22.363Z,1.62
2019-03-13T00:25:52.238Z,1.50
2019-03-13T00:28:22.187Z,1.10
2019-03-13T00:30:53.969Z,1.10
2019-03-13T00:33:23.896Z,1.25
2019-03-13T00:35:53.760Z,1.40
2019-03-13T00:38:23.619Z,1.17
2019-03-13T00:40:53.655Z,1.02
2019-03-13T00:43:25.148Z,0.85
2019-03-13T00:45:56.558Z,0.80
2019-03-13T00:48:26.304Z,0.88
2019-03-13T00:50:56.226Z,0.57
2019-03-13T00:53:26.124Z,0.80
2019-03-13T00:55:57.408Z,0.50
2019-03-13T00:58:27.578Z,0.50
2019-03-13T01:01:04.634Z,0.50
2019-03-13T01:03:36.224Z,0.85
2019-03-13T01:06:19.656Z,0.70
2019-03-13T01:08:49.731Z,0.57
2019-03-13T01:11:19.542Z,0.50
2019-03-13T01:13:49.439Z,0.68
2019-03-13T01:16:19.395Z,0.47
2019-03-13T01:18:50.092Z,0.50
2019-03-13T01:21:19.900Z,0.50
2019-03-13T01:23:49.587Z,0.50
2019-03-13T01:26:19.378Z,0.35
2019-03-13T01:28:49.304Z,0.60
2019-03-13T01:31:26.477Z,0.40
2019-03-13T01:33:58.154Z,0.42
2019-03-13T01:36:27.902Z,0.40
2019-03-13T01:38:57.848Z,0.50
2019-03-13T01:41:29.488Z,0.42
2019-03-13T01:44:00.562Z,0.30
2019-03-13T01:46:30.526Z,0.40
2019-03-13T01:49:00.307Z,0.47
2019-03-13T01:51:30.034Z,0.40
2019-03-13T01:54:00.260Z,0.40
2019-03-13T01:56:30.229Z,0.40
2019-03-13T01:59:00.074Z,0.40
2019-03-13T02:01:29.788Z,0.20
2019-03-13T02:03:59.546Z,0.30
2019-03-13T02:06:29.649Z,0.30
2019-03-13T02:08:59.332Z,0.30
2019-03-13T02:11:29.174Z,0.30
2019-03-13T02:13:58.921Z,0.20
2019-03-13T02:16:28.982Z,0.20
2019-03-13T02:18:58.703Z,0.30
2019-03-13T02:21:28.665Z,0.40
2019-03-13T02:23:59.338Z,0.20
2019-03-13T02:26:29.479Z,0.20
2019-03-13T02:28:59.283Z,0.20
2019-03-13T02:31:29.218Z,0.20
2019-03-13T02:33:59.071Z,0.20
2019-03-13T02:36:28.823Z,0.30
2019-03-13T02:38:58.592Z,0.20
2019-03-13T02:41:28.552Z,0.20
2019-03-13T02:43:58.490Z,0.20
2019-03-13T02:46:28.376Z,0.20
2019-03-13T02:48:58.138Z,0.20
2019-03-13T02:51:29.383Z,0.30
2019-03-13T02:53:59.277Z,0.20
2019-03-13T02:56:30.648Z,0.30
2019-03-13T02:59:00.328Z,0.20
2019-03-13T03:01:31.783Z,0.20
2019-03-13T03:04:03.234Z,0.30
2019-03-13T03:06:33.223Z,0.30
2019-03-13T03:09:04.897Z,0.23
2019-03-13T03:11:36.308Z,0.20
2019-03-13T03:14:06.443Z,0.30
2019-03-13T03:16:36.196Z,0.30
2019-03-13T03:19:06.113Z,0.30
2019-03-13T03:21:35.986Z,0.30
2019-03-13T03:24:05.894Z,0.30
2019-03-13T03:26:35.955Z,0.30
2019-03-13T03:29:05.882Z,0.20
2019-03-13T03:31:35.765Z,0.30
2019-03-13T03:34:05.690Z,0.30
2019-03-13T03:36:35.870Z,0.30
2019-03-13T03:39:06.406Z,0.20
2019-03-13T03:41:37.766Z,0.30
2019-03-13T03:44:07.505Z,0.20
2019-03-13T03:46:37.273Z,0.40
2019-03-13T03:49:07.252Z,0.30
2019-03-13T03:51:37.029Z,0.40
2019-03-13T03:54:06.764Z,0.25
2019-03-13T03:56:36.815Z,0.30
2019-03-13T03:59:06.647Z,0.33
2019-03-13T04:01:36.512Z,0.40
2019-03-13T04:04:06.474Z,0.50
2019-03-13T04:06:36.294Z,0.40
2019-03-13T04:09:06.862Z,0.40
2019-03-13T04:11:36.933Z,0.40
2019-03-13T04:14:06.744Z,0.30
2019-03-13T04:16:37.538Z,0.40
2019-03-13T04:19:07.474Z,0.50
2019-03-13T04:21:37.612Z,0.30
2019-03-13T04:24:07.591Z,0.50
2019-03-13T04:26:39.230Z,0.50
2019-03-13T04:29:09.224Z,0.40
2019-03-13T04:31:39.674Z,0.33
2019-03-13T04:34:10.018Z,0.40
2019-03-13T04:36:40.305Z,0.47
2019-03-13T04:39:10.253Z,0.47
2019-03-13T04:41:40.033Z,0.40
2019-03-13T04:44:10.128Z,0.55
2019-03-13T04:46:39.927Z,0.40
2019-03-13T04:49:09.608Z,0.40
2019-03-13T04:51:39.347Z,0.42
2019-03-13T04:54:09.174Z,0.40
2019-03-13T04:56:38.892Z,0.55
2019-03-13T04:59:08.981Z,0.60
2019-03-13T05:01:38.958Z,0.60
2019-03-13T05:04:08.833Z,0.50
2019-03-13T05:06:38.789Z,0.50
2019-03-13T05:09:08.685Z,0.68
2019-03-13T05:11:38.682Z,0.50
2019-03-13T05:14:08.664Z,0.60
2019-03-13T05:16:39.513Z,0.55
2019-03-13T05:19:09.326Z,0.43
2019-03-13T05:21:39.331Z,0.30
2019-03-13T05:24:09.209Z,0.55
2019-03-13T05:26:38.995Z,0.40
2019-03-13T05:29:10.367Z,0.45
2019-03-13T05:31:40.498Z,0.70
2019-03-13T05:34:10.256Z,0.55
2019-03-13T05:36:40.414Z,0.55
2019-03-13T05:39:10.190Z,0.60
2019-03-13T05:41:40.230Z,0.53
2019-03-13T05:44:09.990Z,0.40
2019-03-13T05:46:39.919Z,0.45
2019-03-13T05:49:09.851Z,0.37
2019-03-13T05:51:41.179Z,0.50
2019-03-13T05:54:11.188Z,0.50
2019-03-13T05:56:41.105Z,0.50
2019-03-13T05:59:10.865Z,0.60
2019-03-13T06:01:40.968Z,0.50
2019-03-13T06:04:10.649Z,0.50
2019-03-13T06:09:32.232Z,0.55
2019-03-13T06:12:02.153Z,0.60
2019-03-13T06:14:32.028Z,0.40
2019-03-13T06:17:01.849Z,0.42
2019-03-13T06:19:31.808Z,0.60
2019-03-13T06:22:01.590Z,0.50
2019-03-13T06:24:31.518Z,0.50
2019-03-13T06:27:01.397Z,0.60
2019-03-13T06:29:31.878Z,0.57
2019-03-13T06:32:02.348Z,0.68
2019-03-13T06:34:33.922Z,0.88
2019-03-13T06:37:03.941Z,0.70
2019-03-13T06:39:33.626Z,0.80
2019-03-13T06:42:03.571Z,1.27
2019-03-13T06:44:33.414Z,1.10
2019-03-13T06:47:03.211Z,0.93
2019-03-13T06:49:33.153Z,1.17
2019-03-13T06:52:03.011Z,1.37
2019-03-13T06:54:32.823Z,2.17
2019-03-13T06:57:02.808Z,1.40
2019-03-13T06:59:34.209Z,2.05
2019-03-13T07:02:05.757Z,1.10
2019-03-13T07:04:53.235Z,0.65
2019-03-13T07:07:24.714Z,0.80
2019-03-13T07:10:02.040Z,0.60
2019-03-13T07:12:33.542Z,0.90
2019-03-13T07:15:04.981Z,0.55
2019-03-13T07:17:39.178Z,0.80
2019-03-13T07:20:20.950Z,0.88
2019-03-13T07:22:52.604Z,0.82
2019-03-13T07:25:23.931Z,0.50
2019-03-13T07:27:58.361Z,0.60
2019-03-13T07:30:38.843Z,0.70
2019-03-13T07:33:13.181Z,0.80
2019-03-13T07:35:57.014Z,0.50
2019-03-13T07:38:31.379Z,0.50
2019-03-13T07:41:02.902Z,0.80
2019-03-13T07:43:43.177Z,0.70
2019-03-13T07:46:20.619Z,0.82
2019-03-13T07:49:08.671Z,0.65
2019-03-13T07:51:57.025Z,0.42
2019-03-13T07:54:37.909Z,0.78
2019-03-13T07:57:16.903Z,0.60
2019-03-13T08:00:03.357Z,0.55
2019-03-13T08:02:44.975Z,0.60
2019-03-13T08:05:16.455Z,0.50
2019-03-13T08:08:03.547Z,0.70
2019-03-13T08:10:44.153Z,0.55
2019-03-13T08:13:24.767Z,0.70
2019-03-13T08:15:56.173Z,0.50
2019-03-13T08:18:36.826Z,0.50
2019-03-13T08:21:08.255Z,0.70
2019-03-13T08:23:49.018Z,0.70
2019-03-13T08:26:23.645Z,0.50
2019-03-13T08:29:04.005Z,0.53
2019-03-13T08:31:35.415Z,0.95
2019-03-13T08:34:26.103Z,0.40
2019-03-13T08:36:57.674Z,0.80
2019-03-13T08:39:31.942Z,0.70
2019-03-13T08:42:03.311Z,0.65
2019-03-13T08:44:43.595Z,1.20
2019-03-13T08:47:27.038Z,0.53
2019-03-13T08:50:01.521Z,0.80
2019-03-13T08:52:34.185Z,0.65
2019-03-13T08:55:06.070Z,0.50
2019-03-13T08:57:43.496Z,0.70
2019-03-13T09:00:31.381Z,1.00
2019-03-13T09:03:03.484Z,0.70
2019-03-13T09:05:36.080Z,1.02
2019-03-13T09:08:07.516Z,0.60
2019-03-13T09:10:48.239Z,0.53
2019-03-13T09:13:22.404Z,0.70
2019-03-13T09:16:10.271Z,0.65
2019-03-13T09:18:57.261Z,0.70
2019-03-13T09:21:37.884Z,0.60
2019-03-13T09:24:11.161Z,0.95
2019-03-13T09:26:58.232Z,0.70
2019-03-13T09:29:48.250Z,0.95
2019-03-13T09:32:36.351Z,0.72
2019-03-13T09:35:17.742Z,0.60
2019-03-13T09:38:04.438Z,2.22
2019-03-13T09:40:44.475Z,1.35
2019-03-13T09:43:17.772Z,0.88
2019-03-13T09:45:58.440Z,1.00
2019-03-13T09:48:36.727Z,0.80
2019-03-13T09:51:25.010Z,0.78
2019-03-13T09:53:59.100Z,0.80
2019-03-13T09:56:36.228Z,0.60
2019-03-13T09:59:07.833Z,0.70
2019-03-13T10:01:42.922Z,0.62
2019-03-13T10:04:31.364Z,0.55
2019-03-13T10:07:12.601Z,0.88
2019-03-13T10:09:44.039Z,1.07
2019-03-13T10:12:26.951Z,1.20
2019-03-13T10:15:01.448Z,1.27
2019-03-13T10:17:50.385Z,0.88
2019-03-13T10:20:24.605Z,1.02
2019-03-13T10:22:59.269Z,1.00
2019-03-13T10:25:42.853Z,0.78
2019-03-13T10:28:23.085Z,0.90
2019-03-13T10:30:54.721Z,1.17
2019-03-13T10:33:34.950Z,0.72
2019-03-13T10:36:21.852Z,1.75
2019-03-13T10:38:53.370Z,1.12
2019-03-13T10:41:36.648Z,0.90
2019-03-13T10:44:17.218Z,1.12
2019-03-13T10:46:57.604Z,0.80
2019-03-13T10:49:34.935Z,0.40
2019-03-13T10:52:15.453Z,0.80
2019-03-13T10:55:03.364Z,0.82
2019-03-13T10:57:36.223Z,0.90
2019-03-13T11:00:23.091Z,0.98
2019-03-13T11:02:54.601Z,1.53
2019-03-13T11:05:41.173Z,0.98
2019-03-13T11:08:29.446Z,0.82
2019-03-13T11:11:03.663Z,0.65
2019-03-13T11:13:37.095Z,0.75
2019-03-13T11:16:24.883Z,1.40
2019-03-13T11:18:56.614Z,0.62
2019-03-13T11:21:30.951Z,0.78
2019-03-13T11:24:06.057Z,0.93
2019-03-13T11:26:44.457Z,0.90
2019-03-13T11:29:20.731Z,1.07
2019-03-13T11:31:55.313Z,0.90
2019-03-13T11:34:29.621Z,1.00
2019-03-13T11:37:04.185Z,2.20
2019-03-13T11:39:41.687Z,1.05
2019-03-13T11:42:19.217Z,1.10
2019-03-13T11:44:53.393Z,1.20
2019-03-13T11:47:24.845Z,0.78
2019-03-13T11:50:04.896Z,0.62
2019-03-13T11:52:52.983Z,0.70
2019-03-13T11:55:24.516Z,1.10
2019-03-13T11:57:55.889Z,0.90
2019-03-13T12:00:27.528Z,1.22
2019-03-13T12:03:15.558Z,1.10
2019-03-13T12:06:03.812Z,0.88
2019-03-13T12:08:35.517Z,1.10
2019-03-13T12:11:13.269Z,0.75
2019-03-13T12:14:01.458Z,0.68
2019-03-13T12:16:49.543Z,1.42
2019-03-13T12:19:36.075Z,0.82
2019-03-13T12:22:07.663Z,1.00
2019-03-13T12:24:54.453Z,0.72
2019-03-13T12:27:31.854Z,0.47
2019-03-13T12:30:19.933Z,1.05
2019-03-13T12:33:10.202Z,1.00
2019-03-13T12:35:41.618Z,0.90
2019-03-13T12:38:19.370Z,0.70
2019-03-13T12:40:50.844Z,0.57
2019-03-13T12:43:28.286Z,0.53
2019-03-13T12:46:02.648Z,0.80
2019-03-13T12:48:34.111Z,0.70
2019-03-13T12:51:12.764Z,0.40
2019-03-13T12:54:00.155Z,0.88
2019-03-13T12:56:31.674Z,0.78
2019-03-13T12:59:15.240Z,0.80
2019-03-13T13:01:49.802Z,0.60
2019-03-13T13:04:24.370Z,1.03
2019-03-13T13:07:04.944Z,0.80
2019-03-13T13:09:44.508Z,0.78
2019-03-13T13:12:25.075Z,0.93
2019-03-13T13:14:59.238Z,0.50
2019-03-13T13:17:33.858Z,0.88
2019-03-13T13:20:05.159Z,1.22
2019-03-13T13:22:35.120Z,0.82
2019-03-13T13:25:06.378Z,0.97
2019-03-13T13:27:37.212Z,1.05
2019-03-13T13:30:14.431Z,0.70
2019-03-13T13:32:44.349Z,0.68
2019-03-13T13:35:14.118Z,0.60
2019-03-13T13:37:45.161Z,0.95
2019-03-13T13:40:18.396Z,0.60
2019-03-13T13:42:48.431Z,0.68
2019-03-13T13:45:33.263Z,0.85
2019-03-13T13:48:03.441Z,0.98
2019-03-13T13:50:33.268Z,0.85
2019-03-13T13:53:03.208Z,0.78
2019-03-13T13:55:33.154Z,0.85
2019-03-13T13:58:03.283Z,0.80
2019-03-13T14:00:33.130Z,0.93
2019-03-13T14:03:03.003Z,0.82
2019-03-13T14:05:33.368Z,1.17
2019-03-13T14:08:03.847Z,0.95
2019-03-13T14:10:34.098Z,0.90
2019-03-13T14:13:04.019Z,0.62
2019-03-13T14:15:34.361Z,0.90
2019-03-13T14:18:04.832Z,1.00
2019-03-13T14:20:36.894Z,1.00
2019-03-13T14:23:06.941Z,0.60
2019-03-13T14:25:37.237Z,0.88
2019-03-13T14:28:07.605Z,1.20
2019-03-13T14:30:37.509Z,0.98
2019-03-13T14:33:07.217Z,0.93
2019-03-13T14:35:37.007Z,0.50
2019-03-13T14:38:06.903Z,0.80
2019-03-13T14:40:36.789Z,1.40
2019-03-13T14:43:06.832Z,0.85
2019-03-13T14:45:36.670Z,1.60
2019-03-13T14:48:06.505Z,1.12
2019-03-13T14:50:36.755Z,1.50
2019-03-13T14:53:07.274Z,1.02
2019-03-13T14:55:37.474Z,0.85
2019-03-13T14:58:07.620Z,0.90
2019-03-13T15:00:37.541Z,0.95
2019-03-13T15:03:07.501Z,0.53
2019-03-13T15:05:37.313Z,0.93
2019-03-13T15:08:08.333Z,0.45
2019-03-13T15:10:38.180Z,0.57
2019-03-13T15:13:08.320Z,0.78
2019-03-13T15:15:38.029Z,0.62
2019-03-13T15:18:07.754Z,0.60
2019-03-13T15:20:37.462Z,1.17
2019-03-13T15:23:08.730Z,1.15
2019-03-13T15:25:38.728Z,0.90
2019-03-13T15:28:08.873Z,1.07
2019-03-13T15:30:38.949Z,0.90
2019-03-13T15:33:08.942Z,0.60
2019-03-13T15:35:38.956Z,1.57
2019-03-13T15:38:09.016Z,1.12
2019-03-13T15:40:38.958Z,1.10
2019-03-13T15:43:08.731Z,0.55
2019-03-13T15:45:38.765Z,0.95
2019-03-13T15:48:08.606Z,1.20
2019-03-13T15:50:38.466Z,0.60
2019-03-13T15:53:08.170Z,1.12
2019-03-13T15:55:37.921Z,1.07
2019-03-13T15:58:07.994Z,0.75
2019-03-13T16:00:38.116Z,1.10
2019-03-13T16:03:08.014Z,0.60
2019-03-13T16:05:37.890Z,0.78
2019-03-13T16:08:07.601Z,0.50
2019-03-13T16:10:37.574Z,0.72
2019-03-13T16:13:07.732Z,0.70
2019-03-13T16:15:39.162Z,0.45
2019-03-13T16:18:09.044Z,0.70
2019-03-13T16:20:39.246Z,0.60
2019-03-13T16:23:09.174Z,0.50
2019-03-13T16:25:38.957Z,0.55
2019-03-13T16:28:08.879Z,0.75
2019-03-13T16:30:43.390Z,0.53
2019-03-13T16:33:13.300Z,0.60
2019-03-13T16:35:43.089Z,1.22
2019-03-13T16:38:13.103Z,0.85
2019-03-13T16:40:43.172Z,1.17
2019-03-13T16:43:13.028Z,0.98
2019-03-13T16:45:42.897Z,1.15
2019-03-13T16:48:14.355Z,1.20
2019-03-13T16:50:44.329Z,0.80
2019-03-13T16:53:14.146Z,1.00
2019-03-13T16:55:44.027Z,0.70
2019-03-13T16:58:13.895Z,1.02
2019-03-13T17:00:43.875Z,1.35
2019-03-13T17:03:13.751Z,1.57
2019-03-13T17:05:43.751Z,0.57
2019-03-13T17:08:15.322Z,1.22
2019-03-13T17:10:47.185Z,1.15
2019-03-13T17:13:17.267Z,1.15
2019-03-13T17:15:47.155Z,0.90
2019-03-13T17:18:17.271Z,1.35
2019-03-13T17:20:47.335Z,1.10
2019-03-13T17:23:17.199Z,1.12
2019-03-13T17:25:47.013Z,1.22
2019-03-13T17:28:20.051Z,0.98
2019-03-13T17:30:50.245Z,0.78
2019-03-13T17:33:20.363Z,1.00
2019-03-13T17:35:50.625Z,1.12
2019-03-13T17:38:20.787Z,0.90
2019-03-13T17:40:50.873Z,1.20
2019-03-13T17:43:21.025Z,0.82
2019-03-13T17:45:50.937Z,1.40
2019-03-13T17:48:21.098Z,1.15
2019-03-13T17:50:51.124Z,1.00
2019-03-13T17:53:20.984Z,0.80
2019-03-13T17:55:50.904Z,1.00
2019-03-13T17:58:22.651Z,0.75
2019-03-13T18:00:56.497Z,1.10
2019-03-13T18:03:26.528Z,1.45
2019-03-13T18:05:56.547Z,2.40
2019-03-13T18:08:26.463Z,1.82
2019-03-13T18:10:56.373Z,1.62
2019-03-13T18:13:26.404Z,1.27
2019-03-13T18:15:56.489Z,1.40
2019-03-13T18:18:26.323Z,1.50
2019-03-13T18:20:56.358Z,0.98
2019-03-13T18:23:26.725Z,1.05
2019-03-13T18:25:56.950Z,1.00
2019-03-13T18:28:26.918Z,1.10
2019-03-13T18:30:56.915Z,1.07
2019-03-13T18:33:29.034Z,0.90
2019-03-13T18:35:59.164Z,1.27
2019-03-13T18:38:30.976Z,0.90
2019-03-13T18:41:02.492Z,0.90
2019-03-13T18:43:32.343Z,1.60
2019-03-13T18:46:02.493Z,1.10
2019-03-13T18:48:32.307Z,1.62
2019-03-13T18:51:02.406Z,1.17
2019-03-13T18:53:32.730Z,1.42
2019-03-13T18:56:02.742Z,1.00
2019-03-13T18:58:34.940Z,1.30
2019-03-13T19:01:05.220Z,0.93
2019-03-13T19:03:35.194Z,0.93
2019-03-13T19:06:05.705Z,1.15
2019-03-13T19:08:35.668Z,1.70
2019-03-13T19:11:05.845Z,1.50
2019-03-13T19:13:35.616Z,1.40
2019-03-13T19:16:06.014Z,1.42
2019-03-13T19:18:36.013Z,1.35
2019-03-13T19:21:06.142Z,2.33
2019-03-13T19:23:36.065Z,1.12
2019-03-13T19:26:06.029Z,1.10
2019-03-13T19:28:35.883Z,1.32
2019-03-13T19:31:05.917Z,1.20
2019-03-13T19:33:35.877Z,1.12
2019-03-13T19:36:05.820Z,1.42
2019-03-13T19:38:36.202Z,1.50
2019-03-13T19:41:08.697Z,1.17
2019-03-13T19:43:37.959Z,1.57
2019-03-13T19:46:07.928Z,0.85
2019-03-13T19:48:37.811Z,1.25
2019-03-13T19:51:07.679Z,1.00
2019-03-13T19:53:37.835Z,1.60
2019-03-13T19:56:07.669Z,0.85
2019-03-13T19:58:37.763Z,1.20
2019-03-13T20:01:07.837Z,1.47
2019-03-13T20:03:38.077Z,1.45
2019-03-13T20:06:08.143Z,1.20
2019-03-13T20:08:38.430Z,1.40
2019-03-13T20:11:08.257Z,1.65
2019-03-13T20:13:38.130Z,1.10
2019-03-13T20:16:08.095Z,1.30
2019-03-13T20:18:38.276Z,1.57
2019-03-13T20:21:08.306Z,1.57
2019-03-13T20:23:38.375Z,1.07
2019-03-13T20:26:08.772Z,1.95
2019-03-13T20:28:38.674Z,1.30
2019-03-13T20:31:08.747Z,1.70
2019-03-13T20:33:38.655Z,1.32
2019-03-13T20:36:09.588Z,6.78
2019-03-13T20:38:39.489Z,1.25
2019-03-13T20:41:09.423Z,0.98
2019-03-13T20:43:40.390Z,1.15
2019-03-13T20:46:10.367Z,1.70
2019-03-13T20:48:40.239Z,1.70
2019-03-13T20:51:10.385Z,1.07
2019-03-13T20:53:40.232Z,1.40
2019-03-13T20:56:10.173Z,1.57
2019-03-13T20:58:40.023Z,1.17
2019-03-13T21:01:09.937Z,1.62
2019-03-13T21:03:39.920Z,1.40
2019-03-13T21:06:09.893Z,1.15
2019-03-13T21:08:39.869Z,1.20
2019-03-13T21:11:10.021Z,1.30
2019-03-13T21:13:40.218Z,1.10
2019-03-13T21:16:10.837Z,1.00
2019-03-13T21:18:40.852Z,1.10
2019-03-13T21:21:10.922Z,1.00
2019-03-13T21:23:40.948Z,1.00
2019-03-13T21:26:10.813Z,1.10
2019-03-13T21:28:40.879Z,0.90
2019-03-13T21:31:10.674Z,1.52
2019-03-13T21:33:40.769Z,1.50
2019-03-13T21:36:10.606Z,1.20
2019-03-13T21:38:40.624Z,1.52
2019-03-13T21:41:10.541Z,1.50
2019-03-13T21:43:41.369Z,1.17
2019-03-13T21:46:11.415Z,1.35
2019-03-13T21:48:41.502Z,1.07
2019-03-13T21:51:11.552Z,1.10
2019-03-13T21:53:41.558Z,0.70
2019-03-13T21:56:11.620Z,1.10
2019-03-13T21:58:41.449Z,1.07
2019-03-13T22:01:19.727Z,0.70
2019-03-13T22:03:43.148Z,0.90
2019-03-13T22:06:13.052Z,0.75
2019-03-13T22:08:43.312Z,0.88
2019-03-13T22:11:13.178Z,1.15
2019-03-13T22:13:43.135Z,0.80
2019-03-13T22:16:13.062Z,0.57
2019-03-13T22:18:43.395Z,0.75
2019-03-13T22:21:13.553Z,0.90
2019-03-13T22:23:43.327Z,0.80
2019-03-13T22:26:13.455Z,1.10
2019-03-13T22:28:43.265Z,1.05
2019-03-13T22:31:13.381Z,1.30
2019-03-13T22:33:43.143Z,1.30
2019-03-13T22:36:13.844Z,1.17
2019-03-13T22:38:43.745Z,1.27
2019-03-13T22:41:13.563Z,1.52
2019-03-13T22:43:44.926Z,1.52
2019-03-13T22:46:15.655Z,1.82
2019-03-13T22:48:57.333Z,1.55
2019-03-13T22:51:16.981Z,1.45
2019-03-13T22:53:47.132Z,1.70
2019-03-13T22:56:17.016Z,1.70
2019-03-13T22:58:46.979Z,1.50
2019-03-13T23:01:18.725Z,2.05
2019-03-13T23:03:50.299Z,1.70
2019-03-13T23:06:20.317Z,1.90
2019-03-13T23:11:11.621Z,1.80
2019-03-13T23:13:41.531Z,1.87
2019-03-13T23:16:13.075Z,2.00
2019-03-13T23:18:43.311Z,2.33
2019-03-13T23:21:13.400Z,2.08
2019-03-13T23:23:43.212Z,2.10
2019-03-13T23:26:13.433Z,2.17
2019-03-13T23:28:44.571Z,1.92
2019-03-13T23:31:14.711Z,1.60
2019-03-13T23:33:44.503Z,2.10
2019-03-13T23:36:14.655Z,2.52
2019-03-13T23:38:44.495Z,1.82
2019-03-13T23:41:14.503Z,1.92
2019-03-13T23:43:44.351Z,1.90
2019-03-13T23:46:14.231Z,1.80
2019-03-13T23:48:44.133Z,2.00
2019-03-13T23:51:13.857Z,1.85
2019-03-13T23:53:43.655Z,2.12
2019-03-13T23:56:13.788Z,1.80
2019-03-13T23:58:43.894Z,1.90
